createdAt,value
2023-04-01T00:00:55.306Z,34.85
2023-04-01T00:03:24.103Z,41.88
2023-04-01T00:05:53.445Z,35.97
2023-04-01T00:08:21.762Z,37.63
2023-04-01T00:10:49.753Z,35.20
2023-04-01T00:13:17.835Z,42.90
2023-04-01T00:15:45.990Z,38.55
2023-04-01T00:18:14.871Z,41.95
2023-04-01T00:20:47.332Z,37.17
2023-04-01T00:23:15.621Z,35.33
2023-04-01T00:25:44.016Z,32.33
2023-04-01T00:28:11.829Z,30.88
2023-04-01T00:30:39.892Z,33.20
2023-04-01T00:33:07.795Z,35.65
2023-04-01T00:35:39.025Z,35.42
2023-04-01T00:38:07.697Z,39.15
2023-04-01T00:40:41.151Z,32.10
2023-04-01T00:43:16.545Z,31.48
2023-04-01T00:45:45.683Z,26.67
2023-04-01T00:48:19.299Z,34.45
2023-04-01T00:50:49.034Z,38.78
2023-04-01T00:53:17.998Z,39.15
2023-04-01T00:55:51.303Z,44.75
2023-04-01T01:00:48.882Z,43.38
2023-04-01T01:03:17.017Z,39.53
2023-04-01T01:05:49.432Z,42.45
2023-04-01T01:08:23.126Z,38.47
2023-04-01T01:10:51.689Z,38.05
2023-04-01T01:13:35.850Z,43.13
2023-04-01T01:16:04.328Z,37.97
2023-04-01T01:18:48.956Z,40.97
2023-04-01T01:21:23.011Z,37.35
2023-04-01T01:24:09.929Z,40.38
2023-04-01T01:26:56.751Z,42.00
2023-04-01T01:29:34.741Z,41.70
2023-04-01T01:32:08.828Z,39.22
2023-04-01T01:34:42.132Z,33.65
2023-04-01T01:37:15.593Z,40.25
2023-04-01T01:39:45.034Z,38.67
2023-04-01T01:42:14.909Z,36.22
2023-04-01T01:44:43.706Z,38.67
2023-04-01T01:47:12.217Z,40.33
2023-04-01T01:49:41.607Z,48.95
2023-04-01T01:52:09.506Z,52.45
2023-04-01T01:54:37.568Z,52.72
2023-04-01T01:57:10.735Z,49.58
2023-04-01T01:59:44.542Z,49.95
2023-04-01T02:02:17.446Z,48.75
2023-04-01T02:04:47.282Z,47.42
2023-04-01T02:07:21.962Z,49.20
2023-04-01T02:09:51.636Z,52.83
2023-04-01T02:12:20.894Z,59.45
2023-04-01T02:14:57.329Z,57.78
2023-04-01T02:17:29.649Z,49.22
2023-04-01T02:19:57.615Z,44.58
2023-04-01T02:22:31.560Z,49.00
2023-04-01T02:25:01.443Z,47.55
2023-04-01T02:27:30.165Z,54.75
2023-04-01T02:29:59.185Z,45.70
2023-04-01T02:32:27.550Z,43.38
2023-04-01T02:34:55.718Z,41.50
2023-04-01T02:37:23.727Z,51.90
2023-04-01T02:39:51.626Z,42.35
2023-04-01T02:42:19.557Z,43.75
2023-04-01T02:44:47.472Z,43.67
2023-04-01T02:47:15.519Z,41.47
2023-04-01T02:49:43.569Z,44.20
2023-04-01T02:52:11.562Z,43.10
2023-04-01T02:54:39.455Z,32.72
2023-04-01T02:57:07.470Z,33.88
2023-04-01T02:59:35.416Z,38.08
2023-04-01T03:02:03.510Z,44.05
2023-04-01T03:04:31.326Z,38.72
2023-04-01T03:06:59.220Z,33.80
2023-04-01T03:09:27.145Z,36.72
2023-04-01T03:11:55.068Z,43.33
2023-04-01T03:14:22.881Z,38.75
2023-04-01T03:16:51.039Z,34.55
2023-04-01T03:19:19.006Z,36.83
2023-04-01T03:21:46.901Z,33.10
2023-04-01T03:24:14.876Z,31.95
2023-04-01T03:26:42.871Z,31.20
2023-04-01T03:29:10.905Z,29.50
2023-04-01T03:31:40.041Z,30.70
2023-04-01T03:34:07.928Z,32.30
2023-04-01T03:36:36.106Z,28.02
2023-04-01T03:39:04.874Z,21.90
2023-04-01T03:41:41.077Z,23.75
2023-04-01T03:44:09.197Z,30.05
2023-04-01T03:46:37.203Z,28.55
2023-04-01T03:49:14.988Z,33.15
2023-04-01T03:51:43.982Z,34.92
2023-04-01T03:54:12.234Z,28.85
2023-04-01T03:56:40.583Z,30.83
2023-04-01T03:59:09.383Z,35.25
2023-04-01T04:01:37.220Z,34.60
2023-04-01T04:04:05.775Z,31.77
2023-04-01T04:06:34.659Z,20.38
2023-04-01T04:09:03.358Z,19.33
2023-04-01T04:11:33.983Z,20.48
2023-04-01T04:14:03.236Z,25.15
2023-04-01T04:16:37.633Z,30.95
2023-04-01T04:19:06.513Z,27.10
2023-04-01T04:21:34.852Z,29.90
2023-04-01T04:24:02.887Z,22.65
2023-04-01T04:26:46.899Z,27.65
2023-04-01T04:29:15.093Z,25.63
2023-04-01T04:31:44.484Z,28.55
2023-04-01T04:34:12.548Z,27.85
2023-04-01T04:36:40.415Z,30.20
2023-04-01T04:39:08.713Z,26.30
2023-04-01T04:41:39.931Z,28.75
2023-04-01T04:44:07.988Z,27.27
2023-04-01T04:46:37.249Z,31.17
2023-04-01T04:49:16.299Z,32.08
2023-04-01T04:51:45.096Z,34.97
2023-04-01T04:54:15.108Z,33.47
2023-04-01T04:56:54.240Z,31.83
2023-04-01T04:59:23.813Z,31.55
2023-04-01T05:02:06.506Z,34.03
2023-04-01T05:04:38.082Z,31.27
2023-04-01T05:07:08.427Z,27.23
2023-04-01T05:09:36.264Z,41.08
2023-04-01T05:12:04.914Z,32.90
2023-04-01T05:14:51.795Z,32.67
2023-04-01T05:17:19.646Z,30.90
2023-04-01T05:19:47.748Z,33.13
2023-04-01T05:22:16.189Z,34.10
2023-04-01T05:24:45.059Z,30.35
2023-04-01T05:27:13.733Z,34.85
2023-04-01T05:29:43.123Z,33.72
2023-04-01T05:32:26.416Z,39.78
2023-04-01T05:34:54.979Z,38.22
2023-04-01T05:37:38.048Z,38.65
2023-04-01T05:40:06.749Z,48.22
2023-04-01T05:42:36.965Z,41.90
2023-04-01T05:45:06.403Z,42.33
2023-04-01T05:50:17.722Z,42.28
2023-04-01T05:52:45.969Z,39.35
2023-04-01T05:55:13.887Z,39.97
2023-04-01T05:57:42.693Z,44.78
2023-04-01T06:00:11.192Z,45.35
2023-04-01T06:02:44.019Z,45.40
2023-04-01T06:05:15.465Z,42.38
2023-04-01T06:07:43.398Z,51.67
2023-04-01T06:10:16.240Z,42.05
2023-04-01T06:12:52.244Z,44.20
2023-04-01T06:15:39.017Z,44.70
2023-04-01T06:18:30.697Z,47.03
2023-04-01T06:20:58.634Z,54.88
2023-04-01T06:23:26.760Z,58.03
2023-04-01T06:26:15.149Z,66.43
2023-04-01T06:28:43.087Z,70.03
2023-04-01T06:31:23.078Z,70.55
2023-04-01T06:33:59.319Z,71.15
2023-04-01T06:36:58.018Z,67.43
2023-04-01T06:39:35.511Z,66.60
2023-04-01T06:42:17.708Z,62.53
2023-04-01T06:45:03.082Z,61.33
2023-04-01T06:47:49.604Z,59.10
2023-04-01T06:50:55.835Z,59.10
2023-04-01T06:54:05.461Z,55.03
2023-04-01T06:56:56.958Z,60.08
2023-04-01T06:59:34.685Z,55.72
2023-04-01T07:02:11.888Z,55.08
2023-04-01T07:04:42.468Z,53.33
2023-04-01T07:07:16.391Z,48.92
2023-04-01T07:09:55.841Z,48.58
2023-04-01T07:12:48.643Z,55.50
2023-04-01T07:15:26.894Z,45.20
2023-04-01T07:17:57.400Z,46.75
2023-04-01T07:20:28.274Z,53.47
2023-04-01T07:22:59.095Z,54.53
2023-04-01T07:25:48.623Z,50.20
2023-04-01T07:28:42.611Z,46.90
2023-04-01T07:31:32.002Z,52.05
2023-04-01T07:34:05.951Z,46.33
2023-04-01T07:36:37.578Z,66.10
2023-04-01T07:39:15.203Z,49.47
2023-04-01T07:42:24.631Z,40.13
2023-04-01T07:44:52.598Z,43.22
2023-04-01T07:47:31.368Z,42.95
2023-04-01T07:50:18.360Z,37.70
2023-04-01T07:52:53.139Z,43.28
2023-04-01T07:55:25.621Z,41.15
2023-04-01T07:58:15.097Z,42.17
2023-04-01T08:01:15.199Z,38.30
2023-04-01T08:03:50.155Z,38.08
2023-04-01T08:06:21.204Z,43.55
2023-04-01T08:08:56.114Z,43.58
2023-04-01T08:11:51.830Z,35.40
2023-04-01T08:15:10.726Z,32.35
2023-04-01T08:18:13.697Z,36.92
2023-04-01T08:20:46.549Z,35.10
2023-04-01T08:23:29.802Z,38.28
2023-04-01T08:25:57.763Z,40.70
2023-04-01T08:28:42.774Z,38.60
2023-04-01T08:31:12.697Z,38.22
2023-04-01T08:33:44.988Z,36.88
2023-04-01T08:36:23.898Z,31.58
2023-04-01T08:39:17.598Z,36.80
2023-04-01T08:42:02.345Z,33.80
2023-04-01T08:45:01.544Z,32.35
2023-04-01T08:47:55.300Z,27.48
2023-04-01T08:50:33.081Z,27.20
2023-04-01T08:53:48.018Z,24.60
2023-04-01T08:56:33.736Z,29.75
2023-04-01T08:59:05.327Z,29.15
2023-04-01T09:01:41.357Z,30.17
2023-04-01T09:04:38.089Z,27.33
2023-04-01T09:07:29.766Z,31.33
2023-04-01T09:10:20.283Z,29.88
2023-04-01T09:13:16.570Z,28.50
2023-04-01T09:15:50.665Z,26.92
2023-04-01T09:18:38.616Z,25.48
2023-04-01T09:21:25.205Z,27.02
2023-04-01T09:24:14.107Z,27.38
2023-04-01T09:27:14.770Z,26.67
2023-04-01T09:30:08.420Z,26.15
2023-04-01T09:33:03.720Z,24.38
2023-04-01T09:35:42.042Z,26.73
2023-04-01T09:38:28.633Z,23.73
2023-04-01T09:41:16.127Z,22.02
2023-04-01T09:44:06.222Z,23.02
2023-04-01T09:47:10.130Z,28.65
2023-04-01T09:50:17.025Z,23.63
2023-04-01T09:53:01.531Z,24.88
2023-04-01T09:55:35.347Z,21.45
2023-04-01T09:58:22.613Z,20.27
2023-04-01T10:01:32.557Z,20.55
2023-04-01T10:04:19.789Z,18.48
2023-04-01T10:06:47.838Z,18.40
2023-04-01T10:09:29.420Z,18.00
2023-04-01T10:12:06.688Z,20.73
2023-04-01T10:14:54.026Z,20.70
2023-04-01T10:17:25.335Z,21.63
2023-04-01T10:19:56.316Z,20.98
2023-04-01T10:22:27.665Z,17.80
2023-04-01T10:24:56.931Z,19.30
2023-04-01T10:27:31.180Z,20.60
2023-04-01T10:30:25.158Z,18.70
2023-04-01T10:33:16.711Z,15.93
2023-04-01T10:36:13.632Z,15.82
2023-04-01T10:38:42.742Z,16.75
2023-04-01T23:37:22.029Z,33.55
2023-04-01T23:39:54.153Z,33.05
2023-04-01T23:42:32.173Z,33.42
2023-04-01T23:45:01.608Z,36.60
2023-04-01T23:47:34.622Z,34.65
2023-04-01T23:50:08.373Z,30.15
2023-04-01T23:52:44.492Z,35.20
2023-04-01T23:55:12.417Z,35.03
2023-04-01T23:57:40.425Z,34.45
